createdAt,value
2017-10-24T00:00:45.018Z,99.50
2017-10-24T00:02:38.389Z,99.69
2017-10-24T00:03:38.414Z,99.69
2017-10-24T00:05:31.760Z,99.99
2017-10-24T00:06:31.787Z,99.98
2017-10-24T00:08:25.209Z,99.99
2017-10-24T00:09:25.171Z,99.88
2017-10-24T00:11:18.555Z,99.60
2017-10-24T00:12:18.560Z,99.79
2017-10-24T00:14:11.952Z,99.98
2017-10-24T00:15:11.959Z,99.79
2017-10-24T00:17:05.363Z,99.88
2017-10-24T00:18:05.352Z,99.99
2017-10-24T00:19:58.746Z,99.60
2017-10-24T00:20:58.721Z,99.99
2017-10-24T00:22:52.128Z,99.88
2017-10-24T00:23:52.139Z,99.60
2017-10-24T00:25:45.546Z,99.79
2017-10-24T00:26:45.503Z,99.79
2017-10-24T00:28:38.883Z,99.99
2017-10-24T00:29:38.908Z,99.60
2017-10-24T00:31:32.365Z,99.88
2017-10-24T00:32:32.330Z,99.60
2017-10-24T00:34:25.709Z,99.79
2017-10-24T00:35:25.711Z,99.88
2017-10-24T00:37:19.118Z,99.99
2017-10-24T00:38:19.136Z,99.99
2017-10-24T00:40:12.523Z,99.99
2017-10-24T00:41:12.504Z,99.98
2017-10-24T00:43:05.886Z,99.99
2017-10-24T00:44:05.899Z,99.99
2017-10-24T00:45:59.275Z,99.99
2017-10-24T00:46:59.279Z,99.99
2017-10-24T00:48:52.687Z,99.99
2017-10-24T00:49:52.647Z,99.99
2017-10-24T00:51:46.047Z,99.99
2017-10-24T00:52:46.058Z,99.99
2017-10-24T00:54:39.448Z,99.99
2017-10-24T00:55:39.434Z,99.99
2017-10-24T00:57:32.861Z,99.99
2017-10-24T00:58:32.860Z,99.99
2017-10-24T01:00:26.266Z,99.99
2017-10-24T01:01:26.278Z,99.69
2017-10-24T01:03:19.645Z,99.99
2017-10-24T01:04:19.678Z,99.99
2017-10-24T01:06:13.085Z,99.99
2017-10-24T01:07:13.053Z,99.99
2017-10-24T01:09:06.474Z,99.99
2017-10-24T01:10:06.467Z,99.99
2017-10-24T01:11:59.904Z,99.99
2017-10-24T01:12:59.869Z,99.93
2017-10-24T01:14:53.238Z,99.99
2017-10-24T01:15:53.238Z,99.99
2017-10-24T01:17:46.632Z,99.99
2017-10-24T01:18:46.672Z,99.99
2017-10-24T01:20:40.047Z,99.99
2017-10-24T01:21:40.025Z,99.99
2017-10-24T01:23:33.438Z,99.99
2017-10-24T01:24:33.406Z,99.99
2017-10-24T01:26:26.806Z,99.99
2017-10-24T01:27:26.812Z,99.99
2017-10-24T01:29:20.203Z,99.99
2017-10-24T01:30:20.201Z,99.99
2017-10-24T01:32:13.595Z,99.99
2017-10-24T01:33:13.593Z,99.99
2017-10-24T01:35:07.976Z,99.99
2017-10-24T01:36:07.964Z,99.99
2017-10-24T01:38:01.364Z,99.99
2017-10-24T01:39:01.377Z,99.99
2017-10-24T01:40:54.758Z,99.99
2017-10-24T01:41:54.758Z,99.99
2017-10-24T01:43:48.158Z,99.99
2017-10-24T01:44:48.182Z,99.99
2017-10-24T01:46:41.556Z,99.99
2017-10-24T01:47:41.571Z,99.99
2017-10-24T01:49:34.914Z,99.99
2017-10-24T01:50:34.949Z,99.99
2017-10-24T01:52:28.340Z,99.99
2017-10-24T01:53:28.329Z,99.99
2017-10-24T01:55:21.710Z,99.99
2017-10-24T01:56:21.744Z,99.99
2017-10-24T01:58:15.134Z,99.99
2017-10-24T01:59:15.132Z,99.99
2017-10-24T02:01:08.513Z,99.99
2017-10-24T02:02:08.522Z,99.99
2017-10-24T02:04:01.946Z,99.99
2017-10-24T02:05:01.921Z,99.99
2017-10-24T02:06:55.297Z,99.99
2017-10-24T02:07:55.318Z,99.99
2017-10-24T02:09:48.708Z,99.99
2017-10-24T02:10:48.710Z,99.99
2017-10-24T02:12:42.069Z,99.99
2017-10-24T02:13:42.083Z,99.99
2017-10-24T02:15:35.492Z,99.99
2017-10-24T02:16:35.536Z,99.99
2017-10-24T02:18:28.854Z,99.99
2017-10-24T02:19:28.863Z,99.99
2017-10-24T02:21:22.301Z,99.99
2017-10-24T02:22:22.277Z,99.99
2017-10-24T02:24:15.643Z,99.99
2017-10-24T02:25:15.655Z,99.99
2017-10-24T02:27:09.063Z,99.99
2017-10-24T02:28:09.061Z,99.99
2017-10-24T02:30:02.440Z,99.99
2017-10-24T02:31:02.451Z,99.99
2017-10-24T02:32:55.874Z,99.99
2017-10-24T02:33:55.827Z,99.99
2017-10-24T02:35:49.237Z,99.99
2017-10-24T02:36:49.236Z,99.99
2017-10-24T02:38:42.647Z,99.99
2017-10-24T02:39:42.652Z,99.99
2017-10-24T02:41:36.027Z,99.99
2017-10-24T02:42:36.049Z,99.99
2017-10-24T02:44:29.454Z,99.99
2017-10-24T02:45:29.442Z,99.99
2017-10-24T02:47:22.817Z,99.99
2017-10-24T02:48:22.804Z,99.99
2017-10-24T02:50:16.235Z,99.99
2017-10-24T02:51:16.195Z,99.99
2017-10-24T02:53:09.575Z,99.99
2017-10-24T02:54:09.599Z,99.99
2017-10-24T02:56:02.983Z,99.99
2017-10-24T02:57:02.987Z,99.99
2017-10-24T02:58:56.430Z,99.99
2017-10-24T02:59:56.414Z,99.99
2017-10-24T03:01:49.810Z,99.99
2017-10-24T03:02:49.818Z,99.99
2017-10-24T03:04:43.192Z,99.99
2017-10-24T03:05:43.205Z,99.99
2017-10-24T03:07:36.614Z,99.99
2017-10-24T03:08:36.596Z,99.99
2017-10-24T03:10:29.972Z,99.99
2017-10-24T03:11:29.984Z,99.99
2017-10-24T03:13:23.400Z,99.99
2017-10-24T03:14:23.405Z,99.99
2017-10-24T03:16:16.749Z,99.99
2017-10-24T03:17:16.767Z,99.99
2017-10-24T03:19:10.170Z,99.99
2017-10-24T03:20:10.151Z,99.99
2017-10-24T03:22:03.548Z,99.99
2017-10-24T03:23:03.554Z,99.99
2017-10-24T03:24:56.978Z,99.99
2017-10-24T03:25:56.962Z,99.99
2017-10-24T03:27:50.351Z,99.99
2017-10-24T03:28:50.355Z,99.99
2017-10-24T03:30:43.747Z,99.99
2017-10-24T03:31:43.749Z,99.99
2017-10-24T03:33:37.128Z,99.99
2017-10-24T03:34:37.153Z,99.99
2017-10-24T03:36:30.554Z,99.99
2017-10-24T03:37:30.525Z,99.99
2017-10-24T03:39:23.913Z,99.99
2017-10-24T03:40:23.911Z,99.99
2017-10-24T03:42:17.320Z,99.99
2017-10-24T03:43:17.332Z,99.99
2017-10-24T03:45:10.689Z,99.99
2017-10-24T03:46:10.682Z,99.99
2017-10-24T03:48:04.130Z,99.99
2017-10-24T03:49:04.103Z,99.99
2017-10-24T03:50:57.495Z,99.99
2017-10-24T03:51:57.495Z,99.99
2017-10-24T03:53:50.885Z,99.99
2017-10-24T03:54:50.866Z,99.99
2017-10-24T03:56:44.246Z,99.99
2017-10-24T03:57:44.269Z,99.99
2017-10-24T03:59:37.677Z,99.99
2017-10-24T04:00:37.652Z,99.99
2017-10-24T04:02:31.037Z,99.99
2017-10-24T04:03:31.047Z,99.99
2017-10-24T04:05:24.448Z,99.99
2017-10-24T04:06:24.435Z,99.99
2017-10-24T04:08:17.822Z,99.99
2017-10-24T04:09:17.825Z,99.99
2017-10-24T04:11:11.230Z,99.99
2017-10-24T04:12:11.212Z,99.99
2017-10-24T04:14:04.600Z,99.99
2017-10-24T04:15:04.606Z,99.99
2017-10-24T04:16:58.029Z,99.99
2017-10-24T04:17:57.999Z,99.99
2017-10-24T04:19:51.385Z,99.99
2017-10-24T04:20:51.389Z,99.99
2017-10-24T04:22:44.794Z,99.99
2017-10-24T04:23:44.788Z,99.99
2017-10-24T04:25:38.170Z,99.99
2017-10-24T04:26:38.169Z,99.99
2017-10-24T04:28:31.573Z,99.99
2017-10-24T04:29:31.559Z,99.99
2017-10-24T04:31:24.950Z,99.99
2017-10-24T04:32:24.951Z,99.99
2017-10-24T04:34:18.377Z,99.99
2017-10-24T04:35:18.343Z,99.99
2017-10-24T04:37:11.727Z,99.99
2017-10-24T04:38:11.732Z,99.99
2017-10-24T04:40:05.144Z,99.99
2017-10-24T04:41:05.122Z,99.99
2017-10-24T04:42:58.510Z,99.99
2017-10-24T04:43:58.514Z,99.99
2017-10-24T04:45:51.921Z,99.99
2017-10-24T04:46:51.905Z,99.99
2017-10-24T04:48:45.300Z,99.99
2017-10-24T04:49:45.314Z,99.99
2017-10-24T04:51:38.717Z,99.99
2017-10-24T04:52:38.696Z,99.99
2017-10-24T04:54:32.096Z,99.99
2017-10-24T04:55:32.275Z,99.99
2017-10-24T04:57:25.503Z,99.99
2017-10-24T04:58:25.495Z,99.99
2017-10-24T05:00:18.868Z,99.99
2017-10-24T05:01:18.873Z,99.99
2017-10-24T05:03:12.298Z,99.99
2017-10-24T05:04:12.268Z,99.99
2017-10-24T05:06:05.652Z,99.99
2017-10-24T05:07:05.664Z,99.99
2017-10-24T05:08:59.085Z,99.99
2017-10-24T05:09:59.061Z,99.99
2017-10-24T05:11:52.439Z,99.99
2017-10-24T05:12:52.447Z,99.99
2017-10-24T05:14:45.849Z,99.99
2017-10-24T05:15:45.833Z,99.99
2017-10-24T05:17:39.249Z,99.99
2017-10-24T05:18:39.254Z,99.99
2017-10-24T05:20:32.659Z,99.99
2017-10-24T05:21:32.653Z,99.99
2017-10-24T05:23:26.028Z,99.99
2017-10-24T05:24:26.032Z,99.99
2017-10-24T05:26:19.450Z,99.99
2017-10-24T05:27:19.423Z,99.99
2017-10-24T05:29:12.809Z,99.99
2017-10-24T05:30:12.813Z,99.99
2017-10-24T05:32:06.218Z,99.99
2017-10-24T05:33:06.205Z,99.99
2017-10-24T05:34:59.603Z,99.99
2017-10-24T05:35:59.606Z,99.99
2017-10-24T05:37:53.016Z,99.99
2017-10-24T05:38:53.001Z,99.99
2017-10-24T05:40:46.387Z,99.99
2017-10-24T05:41:46.407Z,99.99
2017-10-24T05:43:39.798Z,99.99
2017-10-24T05:44:39.782Z,99.99
2017-10-24T05:46:33.191Z,99.99
2017-10-24T05:47:33.171Z,99.99
2017-10-24T05:49:26.587Z,99.99
2017-10-24T05:50:26.565Z,99.99
2017-10-24T05:52:19.959Z,99.99
2017-10-24T05:53:19.959Z,99.99
2017-10-24T05:55:13.642Z,99.99
2017-10-24T05:56:13.350Z,99.99
2017-10-24T05:58:06.737Z,99.99
2017-10-24T05:59:06.740Z,99.99
2017-10-24T06:01:00.146Z,99.99
2017-10-24T06:02:00.145Z,99.99
2017-10-24T06:03:53.520Z,99.99
2017-10-24T06:04:53.536Z,99.99
2017-10-24T06:06:46.933Z,99.99
2017-10-24T06:07:46.917Z,99.99
2017-10-24T06:09:40.302Z,99.99
2017-10-24T06:10:40.309Z,99.99
2017-10-24T06:12:33.733Z,99.99
2017-10-24T06:13:33.698Z,99.99
2017-10-24T06:15:27.086Z,99.99
2017-10-24T06:16:27.100Z,99.99
2017-10-24T06:18:20.522Z,99.99
2017-10-24T06:19:20.504Z,99.99
2017-10-24T06:21:13.889Z,99.99
2017-10-24T06:22:13.889Z,99.99
2017-10-24T06:24:07.297Z,99.99
2017-10-24T06:25:07.282Z,99.99
2017-10-24T06:27:00.667Z,99.99
2017-10-24T06:28:00.689Z,99.99
2017-10-24T06:29:54.099Z,99.99
2017-10-24T06:30:54.092Z,99.99
2017-10-24T06:32:47.540Z,99.99
2017-10-24T06:33:47.552Z,99.99
2017-10-24T06:35:41.935Z,99.99
2017-10-24T06:36:41.929Z,99.99
2017-10-24T06:38:35.372Z,99.99
2017-10-24T06:39:35.331Z,99.99
2017-10-24T06:41:28.694Z,99.99
2017-10-24T06:42:28.722Z,99.99
2017-10-24T06:44:22.096Z,99.99
2017-10-24T06:45:29.816Z,99.99
2017-10-24T06:47:15.471Z,99.99
2017-10-24T06:48:15.515Z,99.99
2017-10-24T06:50:08.931Z,99.99
2017-10-24T06:51:08.908Z,99.84
2017-10-24T06:53:02.335Z,99.99
2017-10-24T06:54:02.272Z,99.99
2017-10-24T06:55:55.739Z,99.84
2017-10-24T06:56:55.719Z,99.74
2017-10-24T06:58:49.156Z,99.99
2017-10-24T06:59:49.134Z,99.08
2017-10-24T07:01:42.469Z,99.65
2017-10-24T07:02:42.505Z,99.65
2017-10-24T07:04:36.008Z,99.65
2017-10-24T07:05:35.940Z,99.65
2017-10-24T07:07:29.295Z,99.65
2017-10-24T07:08:29.373Z,99.74
2017-10-24T07:10:22.761Z,99.36
2017-10-24T07:11:22.763Z,99.84
2017-10-24T07:13:16.085Z,99.69
2017-10-24T07:14:16.143Z,99.17
2017-10-24T07:16:09.606Z,98.46
2017-10-24T07:17:09.534Z,98.84
2017-10-24T07:19:02.938Z,98.46
2017-10-24T07:20:02.896Z,98.55
2017-10-24T07:22:03.912Z,98.46
2017-10-24T07:22:56.285Z,98.46
2017-10-24T07:24:49.746Z,98.36
2017-10-24T07:25:49.713Z,97.41
2017-10-24T07:27:43.098Z,97.79
2017-10-24T07:28:43.144Z,97.70
2017-10-24T07:30:36.471Z,97.99
2017-10-24T07:31:36.485Z,97.41
2017-10-24T07:33:29.910Z,97.41
2017-10-24T07:34:29.897Z,97.31
2017-10-24T07:36:23.305Z,97.99
2017-10-24T07:37:23.292Z,97.60
2017-10-24T07:39:16.697Z,97.41
2017-10-24T07:40:16.661Z,97.70
2017-10-24T07:42:10.076Z,97.65
2017-10-24T07:43:10.085Z,96.98
2017-10-24T07:45:03.472Z,96.55
2017-10-24T07:46:03.487Z,96.60
2017-10-24T07:47:56.833Z,97.08
2017-10-24T07:48:56.877Z,96.98
2017-10-24T07:50:51.266Z,96.41
2017-10-24T07:51:51.277Z,96.41
2017-10-24T07:53:44.802Z,96.03
2017-10-24T07:54:44.799Z,96.12
2017-10-24T07:56:39.244Z,96.12
2017-10-24T07:57:39.184Z,95.84
2017-10-24T07:59:32.582Z,95.36
2017-10-24T08:00:32.590Z,94.79
2017-10-24T08:02:25.994Z,94.22
2017-10-24T08:03:25.989Z,94.98
2017-10-24T08:05:19.365Z,93.70
2017-10-24T08:06:19.443Z,93.65
2017-10-24T08:08:12.840Z,93.65
2017-10-24T08:09:12.827Z,94.17
2017-10-24T08:11:06.232Z,92.89
2017-10-24T08:12:06.231Z,92.89
2017-10-24T08:13:59.626Z,94.60
2017-10-24T08:14:59.585Z,94.74
2017-10-24T08:17:01.070Z,94.08
2017-10-24T08:17:52.956Z,93.51
2017-10-24T08:19:46.429Z,93.03
2017-10-24T08:20:46.478Z,93.51
2017-10-24T08:22:39.927Z,93.32
2017-10-24T08:23:39.908Z,93.03
2017-10-24T08:25:33.222Z,93.32
2017-10-24T08:26:33.185Z,93.12
2017-10-24T08:28:26.568Z,93.51
2017-10-24T08:29:26.624Z,93.32
2017-10-24T08:31:20.045Z,92.60
2017-10-24T08:32:20.017Z,92.79
2017-10-24T08:34:13.380Z,92.12
2017-10-24T08:35:13.411Z,91.36
2017-10-24T08:37:06.823Z,91.64
2017-10-24T08:38:06.843Z,92.32
2017-10-24T08:40:00.181Z,91.83
2017-10-24T08:41:00.235Z,91.07
2017-10-24T08:42:53.602Z,91.07
2017-10-24T08:43:53.622Z,90.69
2017-10-24T08:45:47.008Z,90.03
2017-10-24T08:46:46.988Z,90.69
2017-10-24T08:48:40.383Z,90.41
2017-10-24T08:49:40.575Z,89.93
2017-10-24T08:51:34.785Z,90.12
2017-10-24T08:52:34.789Z,89.74
2017-10-24T08:54:28.176Z,89.83
2017-10-24T08:55:28.201Z,90.26
2017-10-24T08:57:21.578Z,89.40
2017-10-24T08:58:21.622Z,90.03
2017-10-24T09:00:14.985Z,90.41
2017-10-24T09:01:15.002Z,90.98
2017-10-24T09:03:15.986Z,91.17
2017-10-24T09:04:08.524Z,91.17
2017-10-24T09:06:01.841Z,91.36
2017-10-24T09:07:01.814Z,90.73
2017-10-24T09:08:55.160Z,86.68
2017-10-24T09:09:55.258Z,87.25
2017-10-24T09:11:48.642Z,86.30
2017-10-24T09:12:48.582Z,85.25
2017-10-24T09:14:41.708Z,86.10
2017-10-24T09:15:41.655Z,86.39
2017-10-24T09:17:35.106Z,87.96
2017-10-24T09:18:35.099Z,86.24
2017-10-24T09:20:28.488Z,85.96
2017-10-24T09:21:28.451Z,85.19
2017-10-24T09:23:21.853Z,84.91
2017-10-24T09:24:21.872Z,85.29
2017-10-24T09:26:15.234Z,84.81
2017-10-24T09:27:15.267Z,85.19
2017-10-24T09:29:08.680Z,85.19
2017-10-24T09:30:08.643Z,85.19
2017-10-24T09:32:02.049Z,84.67
2017-10-24T09:33:02.046Z,83.86
2017-10-24T09:34:55.497Z,84.23
2017-10-24T09:35:55.446Z,83.28
2017-10-24T09:37:49.892Z,84.66
2017-10-24T09:38:49.928Z,81.99
2017-10-24T09:40:43.263Z,81.56
2017-10-24T09:41:43.345Z,82.56
2017-10-24T09:43:36.732Z,81.79
2017-10-24T09:44:36.829Z,81.32
2017-10-24T09:46:31.135Z,80.65
2017-10-24T09:47:31.119Z,80.21
2017-10-24T09:49:24.493Z,79.35
2017-10-24T09:50:24.484Z,79.64
2017-10-24T09:52:17.956Z,78.28
2017-10-24T09:53:17.943Z,76.27
2017-10-24T09:55:11.332Z,75.37
2017-10-24T09:56:11.349Z,75.37
2017-10-24T09:58:04.782Z,77.06
2017-10-24T09:59:04.759Z,78.78
2017-10-24T10:01:07.947Z,77.09
2017-10-24T10:01:59.163Z,77.09
2017-10-24T10:03:53.611Z,77.53
2017-10-24T10:05:01.212Z,77.06
2017-10-24T10:06:46.959Z,79.16
2017-10-24T10:07:46.977Z,78.97
2017-10-24T10:09:40.380Z,78.97
2017-10-24T10:10:40.420Z,79.64
2017-10-24T10:12:33.831Z,80.11
2017-10-24T10:13:41.485Z,80.21
2017-10-24T10:15:27.280Z,78.68
2017-10-24T10:16:27.259Z,78.58
2017-10-24T10:18:20.641Z,76.35
2017-10-24T10:19:20.640Z,70.80
2017-10-24T10:21:14.031Z,62.96
2017-10-24T10:22:14.030Z,61.36
2017-10-24T10:24:07.399Z,64.12
2017-10-24T10:25:07.448Z,66.83
2017-10-24T10:27:00.925Z,68.78
2017-10-24T10:28:00.892Z,71.31
2017-10-24T10:29:54.322Z,62.38
2017-10-24T10:30:54.339Z,59.79
2017-10-24T10:32:47.804Z,58.53
2017-10-24T10:33:47.719Z,57.37
2017-10-24T10:35:41.171Z,58.18
2017-10-24T10:36:41.164Z,58.47
2017-10-24T10:38:34.526Z,58.45
2017-10-24T10:39:34.555Z,58.25
2017-10-24T10:41:27.971Z,59.63
2017-10-24T10:42:28.005Z,56.88
2017-10-24T10:44:21.403Z,61.30
2017-10-24T10:45:21.438Z,61.17
2017-10-24T10:47:14.801Z,60.72
2017-10-24T10:48:14.816Z,61.01
2017-10-24T10:50:08.236Z,59.89
2017-10-24T10:51:08.218Z,58.70
2017-10-24T10:53:01.661Z,54.82
2017-10-24T10:54:01.684Z,52.04
2017-10-24T10:55:55.105Z,53.17
2017-10-24T10:56:55.091Z,52.81
2017-10-24T10:58:48.496Z,55.90
2017-10-24T10:59:48.512Z,58.25
2017-10-24T11:01:41.922Z,54.38
2017-10-24T11:02:41.939Z,52.16
2017-10-24T11:04:35.327Z,52.28
2017-10-24T11:05:35.330Z,53.65
2017-10-24T11:07:28.746Z,53.45
2017-10-24T11:08:28.751Z,54.39
2017-10-24T11:10:22.186Z,53.05
2017-10-24T11:11:22.228Z,52.73
2017-10-24T11:13:15.680Z,55.35
2017-10-24T11:14:15.567Z,56.14
2017-10-24T11:16:09.023Z,59.44
2017-10-24T11:17:09.035Z,60.37
2017-10-24T11:19:02.450Z,59.19
2017-10-24T11:20:02.453Z,59.99
2017-10-24T11:21:55.841Z,61.49
2017-10-24T11:22:55.925Z,61.01
2017-10-24T11:24:49.317Z,58.80
2017-10-24T11:25:49.325Z,59.38
2017-10-24T11:27:42.715Z,62.23
2017-10-24T11:28:42.744Z,61.55
2017-10-24T11:30:36.163Z,64.28
2017-10-24T11:31:36.164Z,64.95
2017-10-24T11:33:29.501Z,66.45
2017-10-24T11:34:29.605Z,66.26
2017-10-24T11:36:22.979Z,64.22
2017-10-24T11:37:22.969Z,62.29
2017-10-24T11:39:16.416Z,64.31
2017-10-24T11:40:16.437Z,64.12
2017-10-24T11:42:09.782Z,64.66
2017-10-24T11:43:09.836Z,65.20
2017-10-24T11:45:03.257Z,65.52
2017-10-24T11:46:03.263Z,66.13
2017-10-24T11:47:56.680Z,64.43
2017-10-24T11:48:56.674Z,64.02
2017-10-24T11:50:50.107Z,64.69
2017-10-24T11:51:50.073Z,64.79
2017-10-24T11:53:44.478Z,62.19
2017-10-24T11:54:44.479Z,63.35
2017-10-24T11:56:37.905Z,64.92
2017-10-24T11:57:37.895Z,62.71
2017-10-24T11:59:31.294Z,62.84
2017-10-24T12:00:31.305Z,62.84
2017-10-24T12:02:24.733Z,60.21
2017-10-24T12:03:32.349Z,59.89
2017-10-24T12:05:19.202Z,59.24
2017-10-24T12:06:19.159Z,58.31
2017-10-24T12:08:12.698Z,57.80
2017-10-24T12:09:12.650Z,56.60
2017-10-24T12:11:05.955Z,57.68
2017-10-24T12:12:06.005Z,59.19
2017-10-24T12:14:08.001Z,59.89
2017-10-24T12:15:00.417Z,59.15
2017-10-24T12:16:53.961Z,56.51
2017-10-24T12:17:53.893Z,56.09
2017-10-24T12:19:47.259Z,54.61
2017-10-24T12:20:54.837Z,56.12
2017-10-24T12:22:40.654Z,57.15
2017-10-24T12:23:49.325Z,57.77
2017-10-24T12:25:35.055Z,59.79
2017-10-24T12:26:35.081Z,59.64
2017-10-24T12:28:28.481Z,60.24
2017-10-24T12:29:28.546Z,59.86
2017-10-24T12:31:22.933Z,62.74
2017-10-24T12:32:30.562Z,62.48
2017-10-24T12:34:16.381Z,60.91
2017-10-24T12:35:16.367Z,60.82
2017-10-24T12:37:09.699Z,62.13
2017-10-24T12:38:09.833Z,62.52
2017-10-24T12:40:04.178Z,65.11
2017-10-24T12:41:04.197Z,64.82
2017-10-24T12:42:57.634Z,62.19
2017-10-24T12:44:06.259Z,64.02
2017-10-24T12:45:51.011Z,62.84
2017-10-24T12:46:51.038Z,61.97
2017-10-24T12:48:44.455Z,60.63
2017-10-24T12:49:44.441Z,60.75
2017-10-24T12:51:37.854Z,60.17
2017-10-24T12:52:37.877Z,60.11
2017-10-24T12:54:31.218Z,60.69
2017-10-24T12:55:31.249Z,60.97
2017-10-24T12:57:24.720Z,59.31
2017-10-24T12:58:24.687Z,60.94
2017-10-24T13:00:18.057Z,61.20
2017-10-24T13:01:18.095Z,60.82
2017-10-24T13:03:11.538Z,62.64
2017-10-24T13:04:19.164Z,62.23
2017-10-24T13:06:04.903Z,62.35
2017-10-24T13:07:04.920Z,60.98
2017-10-24T13:08:59.359Z,61.27
2017-10-24T13:10:07.126Z,61.40
2017-10-24T13:11:53.817Z,61.46
2017-10-24T13:13:01.492Z,61.36
2017-10-24T13:14:47.300Z,62.23
2017-10-24T13:15:47.216Z,62.19
2017-10-24T13:17:49.243Z,63.06
2017-10-24T13:18:40.625Z,63.60
2017-10-24T13:20:34.131Z,63.86
2017-10-24T13:21:34.052Z,64.66
2017-10-24T13:23:27.456Z,66.74
2017-10-24T13:24:27.416Z,67.02
2017-10-24T13:26:21.862Z,68.08
2017-10-24T13:27:21.900Z,67.99
2017-10-24T13:29:23.065Z,67.89
2017-10-24T13:30:15.327Z,69.23
2017-10-24T13:32:09.821Z,67.79
2017-10-24T13:33:08.998Z,67.99
2017-10-24T13:35:03.659Z,68.56
2017-10-24T13:36:10.841Z,68.27
2017-10-24T13:37:58.153Z,68.56
2017-10-24T13:38:55.667Z,67.89
2017-10-24T13:40:49.067Z,67.60
2017-10-24T13:41:57.734Z,68.52
2017-10-24T13:43:42.464Z,69.77
2017-10-24T13:44:50.082Z,69.68
2017-10-24T13:46:36.941Z,71.21
2017-10-24T13:47:36.895Z,70.15
2017-10-24T13:49:30.369Z,69.87
2017-10-24T13:50:30.323Z,69.96
2017-10-24T13:52:23.774Z,71.31
2017-10-24T13:53:23.720Z,70.25
2017-10-24T13:55:18.189Z,69.77
2017-10-24T13:56:18.191Z,71.31
2017-10-24T13:58:11.546Z,72.20
2017-10-24T13:59:11.601Z,69.81
2017-10-24T14:01:05.014Z,69.10
2017-10-24T14:02:05.032Z,68.62
2017-10-24T14:03:59.508Z,69.87
2017-10-24T14:04:59.436Z,69.39
2017-10-24T14:07:02.378Z,70.44
2017-10-24T14:07:53.795Z,70.83
2017-10-24T14:09:47.216Z,71.21
2017-10-24T14:10:47.208Z,72.07
2017-10-24T14:12:40.627Z,72.17
2017-10-24T14:13:40.646Z,70.15
2017-10-24T14:15:34.016Z,69.90
2017-10-24T14:16:34.035Z,68.95
2017-10-24T14:18:27.488Z,69.33
2017-10-24T14:19:27.496Z,68.18
2017-10-24T14:21:28.510Z,69.20
2017-10-24T14:22:31.472Z,69.96
2017-10-24T14:24:21.985Z,69.96
2017-10-24T14:25:21.984Z,71.40
2017-10-24T14:27:07.715Z,69.77
2017-10-24T14:28:07.751Z,70.15
2017-10-24T14:30:01.151Z,70.60
2017-10-24T14:31:01.172Z,71.37
2017-10-24T14:32:55.587Z,72.32
2017-10-24T14:33:55.612Z,72.23
2017-10-24T14:35:48.964Z,71.46
2017-10-24T14:36:48.961Z,71.23
2017-10-24T14:38:43.357Z,71.14
2017-10-24T14:39:43.391Z,72.32
2017-10-24T14:41:36.859Z,73.05
2017-10-24T14:42:36.806Z,73.15
2017-10-24T14:44:30.233Z,73.72
2017-10-24T14:45:30.313Z,74.49
2017-10-24T14:47:23.655Z,73.44
2017-10-24T14:48:23.679Z,74.20
2017-10-24T14:50:17.076Z,74.77
2017-10-24T14:51:17.019Z,75.07
2017-10-24T14:53:10.423Z,75.16
2017-10-24T14:54:10.448Z,75.26
2017-10-24T14:56:03.815Z,77.08
2017-10-24T14:57:03.838Z,74.16
2017-10-24T14:58:57.266Z,73.34
2017-10-24T14:59:57.258Z,73.91
2017-10-24T15:01:50.646Z,73.44
2017-10-24T15:02:50.635Z,72.96
2017-10-24T15:04:44.062Z,73.91
2017-10-24T15:05:44.083Z,72.92
2017-10-24T15:07:37.596Z,73.59
2017-10-24T15:08:37.641Z,72.38
2017-10-24T15:10:30.950Z,73.54
2017-10-24T15:11:30.896Z,73.50
2017-10-24T15:13:24.298Z,72.83
2017-10-24T15:14:24.292Z,73.21
2017-10-24T15:16:17.731Z,73.88
2017-10-24T15:17:17.733Z,73.11
2017-10-24T15:19:11.130Z,73.88
2017-10-24T15:20:11.144Z,73.59
2017-10-24T15:22:04.585Z,73.40
2017-10-24T15:23:04.567Z,73.97
2017-10-24T15:24:57.954Z,74.93
2017-10-24T15:25:57.979Z,75.98
2017-10-24T15:27:51.380Z,75.66
2017-10-24T15:28:51.379Z,74.41
2017-10-24T15:30:44.755Z,74.32
2017-10-24T15:31:44.786Z,74.13
2017-10-24T15:33:38.169Z,74.99
2017-10-24T15:34:38.172Z,74.93
2017-10-24T15:36:31.552Z,75.47
2017-10-24T15:37:31.639Z,74.90
2017-10-24T15:39:24.993Z,74.04
2017-10-24T15:40:24.958Z,74.41
2017-10-24T15:42:18.360Z,74.99
2017-10-24T15:43:18.374Z,74.51
2017-10-24T15:45:11.821Z,74.41
2017-10-24T15:46:11.795Z,74.32
2017-10-24T15:48:05.169Z,74.90
2017-10-24T15:49:05.179Z,74.80
2017-10-24T15:50:58.604Z,74.95
2017-10-24T15:51:58.605Z,75.95
2017-10-24T15:53:51.997Z,75.91
2017-10-24T15:54:51.998Z,77.06
2017-10-24T15:56:45.431Z,78.11
2017-10-24T15:57:45.452Z,77.92
2017-10-24T15:59:38.802Z,79.16
2017-10-24T16:00:38.820Z,79.54
2017-10-24T16:02:32.235Z,79.06
2017-10-24T16:03:32.222Z,79.22
2017-10-24T16:05:25.615Z,78.97
2017-10-24T16:06:25.626Z,78.55
2017-10-24T16:08:19.037Z,79.22
2017-10-24T16:09:19.048Z,79.41
2017-10-24T16:11:12.433Z,79.31
2017-10-24T16:12:12.432Z,79.79
2017-10-24T16:14:07.547Z,80.27
2017-10-24T16:15:07.558Z,80.17
2017-10-24T16:17:00.922Z,80.46
2017-10-24T16:18:00.927Z,81.89
2017-10-24T16:19:55.832Z,82.37
2017-10-24T16:20:54.699Z,82.52
2017-10-24T16:22:47.795Z,83.09
2017-10-24T16:23:47.798Z,83.28
2017-10-24T16:25:41.214Z,83.86
2017-10-24T16:26:41.199Z,83.18
2017-10-24T16:28:34.616Z,84.67
2017-10-24T16:29:34.605Z,85.63
2017-10-24T16:31:28.397Z,86.54
2017-10-24T16:32:28.039Z,86.92
2017-10-24T16:34:21.584Z,87.78
2017-10-24T16:37:14.832Z,88.16
2017-10-24T16:38:14.822Z,88.54
2017-10-24T16:40:10.976Z,89.07
2017-10-24T16:41:09.731Z,89.02
2017-10-24T16:43:03.347Z,89.07
2017-10-24T16:44:03.133Z,89.54
2017-10-24T16:45:58.274Z,90.03
2017-10-24T16:46:58.282Z,90.22
2017-10-24T16:48:51.691Z,90.41
2017-10-24T16:49:51.676Z,90.59
2017-10-24T16:51:45.070Z,90.59
2017-10-24T16:52:45.091Z,89.89
2017-10-24T16:54:38.504Z,90.74
2017-10-24T16:55:38.498Z,91.03
2017-10-24T16:57:31.870Z,91.60
2017-10-24T16:58:31.879Z,91.50
2017-10-24T17:00:26.110Z,91.79
2017-10-24T17:01:27.659Z,92.08
2017-10-24T17:03:19.246Z,91.69
2017-10-24T17:04:18.951Z,91.41
2017-10-24T17:06:13.379Z,90.55
2017-10-24T17:07:14.785Z,90.17
2017-10-24T17:09:05.608Z,89.89
2017-10-24T17:10:05.598Z,90.55
2017-10-24T17:11:59.559Z,91.31
2017-10-24T17:12:59.561Z,91.31
2017-10-24T17:14:52.374Z,90.45
2017-10-24T17:15:52.381Z,91.22
2017-10-24T17:17:45.792Z,91.69
2017-10-24T17:18:46.437Z,91.50
2017-10-24T17:20:39.177Z,91.84
2017-10-24T17:21:39.197Z,92.60
2017-10-24T17:23:32.587Z,92.89
2017-10-24T17:24:32.576Z,92.89
2017-10-24T17:26:25.971Z,92.13
2017-10-24T17:27:25.975Z,92.13
2017-10-24T17:29:19.395Z,92.32
2017-10-24T17:30:19.382Z,92.69
2017-10-24T17:32:12.797Z,92.03
2017-10-24T17:33:12.783Z,92.32
2017-10-24T17:35:06.198Z,91.27
2017-10-24T17:36:06.299Z,92.32
2017-10-24T17:37:59.591Z,91.55
2017-10-24T17:38:59.606Z,91.08
2017-10-24T17:40:53.040Z,91.36
2017-10-24T17:41:53.007Z,91.46
2017-10-24T17:43:46.378Z,91.17
2017-10-24T17:44:46.397Z,90.98
2017-10-24T17:46:39.812Z,91.46
2017-10-24T17:47:39.791Z,91.65
2017-10-24T17:49:33.175Z,92.03
2017-10-24T17:50:33.187Z,92.08
2017-10-24T17:52:26.631Z,93.13
2017-10-24T17:53:26.599Z,92.74
2017-10-24T17:55:19.982Z,91.99
2017-10-24T17:56:19.988Z,92.13
2017-10-24T17:58:13.423Z,92.36
2017-10-24T17:59:13.410Z,92.32
2017-10-24T18:01:06.797Z,91.89
2017-10-24T18:02:06.805Z,91.79
2017-10-24T18:04:00.257Z,91.89
2017-10-24T18:05:00.251Z,91.79
2017-10-24T18:06:54.596Z,92.27
2017-10-24T18:07:54.619Z,92.55
2017-10-24T18:09:48.006Z,91.99
2017-10-24T18:10:48.044Z,92.74
2017-10-24T18:12:41.404Z,92.08
2017-10-24T18:13:41.420Z,91.89
2017-10-24T18:15:34.845Z,91.89
2017-10-24T18:16:34.805Z,92.36
2017-10-24T18:18:28.195Z,91.89
2017-10-24T18:19:28.707Z,91.89
2017-10-24T18:21:21.649Z,91.70
2017-10-24T18:22:21.623Z,92.36
2017-10-24T18:24:15.004Z,92.18
2017-10-24T18:25:15.049Z,91.60
2017-10-24T18:27:08.468Z,91.22
2017-10-24T18:28:08.461Z,90.94
2017-10-24T18:30:02.096Z,91.27
2017-10-24T18:31:02.229Z,92.13
2017-10-24T18:32:55.321Z,92.60
2017-10-24T18:33:55.343Z,92.70
2017-10-24T18:35:48.734Z,92.41
2017-10-24T18:36:48.687Z,91.94
2017-10-24T18:38:42.387Z,92.22